createdAt,value
2022-11-12T00:00:16.746Z,6.45
2022-11-12T00:03:02.416Z,4.63
2022-11-12T00:05:49.476Z,6.10
2022-11-12T00:08:35.381Z,4.30
2022-11-12T00:11:20.660Z,4.75
2022-11-12T00:14:06.286Z,4.20
2022-11-12T00:16:51.609Z,8.25
2022-11-12T00:19:37.089Z,5.63
2022-11-12T00:22:22.906Z,4.57
2022-11-12T00:25:08.470Z,3.75
2022-11-12T00:27:53.924Z,4.22
2022-11-12T00:30:40.902Z,3.63
2022-11-12T00:33:26.330Z,4.38
2022-11-12T00:36:11.984Z,4.10
2022-11-12T00:38:57.282Z,6.55
2022-11-12T00:41:42.931Z,4.00
2022-11-12T00:44:29.485Z,3.33
2022-11-12T00:47:14.825Z,3.63
2022-11-12T00:50:00.563Z,4.68
2022-11-12T00:52:45.955Z,5.03
2022-11-12T00:55:31.419Z,4.65
2022-11-12T00:58:16.771Z,4.10
2022-11-12T01:01:08.557Z,6.15
2022-11-12T01:03:54.054Z,4.50
2022-11-12T01:06:41.114Z,4.65
2022-11-12T01:09:26.370Z,5.13
2022-11-12T01:12:11.650Z,4.93
2022-11-12T01:14:57.036Z,7.90
2022-11-12T01:17:42.361Z,3.55
2022-11-12T01:20:27.782Z,3.72
2022-11-12T01:23:13.098Z,3.67
2022-11-12T01:25:58.614Z,3.58
2022-11-12T01:28:44.165Z,4.53
2022-11-12T01:31:32.735Z,5.15
2022-11-12T01:34:17.950Z,3.05
2022-11-12T01:37:03.227Z,2.92
2022-11-12T01:39:48.673Z,3.15
2022-11-12T01:42:34.183Z,3.17
2022-11-12T01:45:19.989Z,3.42
2022-11-12T01:48:05.334Z,3.17
2022-11-12T01:50:51.501Z,4.75
2022-11-12T01:53:43.717Z,4.40
2022-11-12T01:59:29.223Z,3.63
2022-11-12T02:02:14.752Z,4.03
2022-11-12T02:05:01.713Z,3.90
2022-11-12T02:07:48.000Z,3.28
2022-11-12T02:10:34.965Z,5.97
2022-11-12T02:13:39.377Z,3.88
2022-11-12T02:16:37.996Z,3.20
2022-11-12T02:19:23.334Z,3.35
2022-11-12T02:22:08.710Z,3.35
2022-11-12T02:24:54.393Z,2.53
2022-11-12T02:27:39.818Z,2.78
2022-11-12T02:30:39.081Z,2.72
2022-11-12T02:33:24.215Z,2.25
2022-11-12T02:36:09.628Z,3.80
2022-11-12T02:38:55.308Z,4.22
2022-11-12T02:41:40.835Z,2.92
2022-11-12T02:44:26.498Z,2.67
2022-11-12T02:47:11.758Z,3.78
2022-11-12T02:49:57.107Z,2.45
2022-11-12T02:52:42.511Z,1.75
2022-11-12T02:55:27.996Z,3.97
2022-11-12T02:58:13.389Z,3.60
2022-11-12T03:00:59.085Z,3.55
2022-11-12T03:03:44.360Z,2.88
2022-11-12T03:06:29.734Z,2.00
2022-11-12T03:09:15.174Z,3.15
2022-11-12T03:12:00.504Z,3.10
2022-11-12T03:14:46.059Z,2.25
2022-11-12T03:17:31.327Z,2.53
2022-11-12T03:20:16.943Z,2.88
2022-11-12T03:23:05.750Z,4.63
2022-11-12T03:25:50.829Z,4.55
2022-11-12T03:28:36.258Z,2.50
2022-11-12T03:31:21.617Z,2.13
2022-11-12T03:34:06.966Z,3.50
2022-11-12T03:36:52.322Z,2.88
2022-11-12T03:39:37.744Z,3.80
2022-11-12T03:42:23.237Z,2.55
2022-11-12T03:45:08.795Z,2.22
2022-11-12T03:47:56.647Z,2.42
2022-11-12T03:50:42.142Z,3.70
2022-11-12T03:53:27.663Z,2.15
2022-11-12T03:56:13.044Z,6.20
2022-11-12T03:58:58.364Z,3.35
2022-11-12T04:01:43.836Z,2.20
2022-11-12T04:04:49.184Z,1.85
2022-11-12T04:07:52.699Z,3.45
2022-11-12T04:10:37.914Z,2.75
2022-11-12T04:13:29.110Z,3.58
2022-11-12T04:16:38.385Z,2.67
2022-11-12T04:19:42.483Z,1.67
2022-11-12T04:22:27.968Z,2.17
2022-11-12T04:25:31.887Z,2.13
2022-11-12T04:28:17.367Z,3.50
2022-11-12T04:31:03.121Z,2.97
2022-11-12T04:33:48.442Z,4.88
2022-11-12T04:36:33.964Z,2.35
2022-11-12T04:39:19.276Z,2.40
2022-11-12T04:42:23.565Z,4.82
2022-11-12T04:45:10.408Z,1.65
2022-11-12T04:47:55.654Z,2.28
2022-11-12T04:50:43.330Z,2.05
2022-11-12T04:53:30.460Z,2.30
2022-11-12T04:56:15.518Z,3.88
2022-11-12T04:59:00.896Z,2.28
2022-11-12T05:01:46.221Z,3.15
2022-11-12T05:04:31.585Z,2.25
2022-11-12T05:07:17.664Z,3.38
2022-11-12T05:10:03.242Z,3.20
2022-11-12T05:12:48.473Z,2.35
2022-11-12T05:15:33.957Z,1.70
2022-11-12T05:18:19.373Z,3.17
2022-11-12T05:21:25.107Z,3.97
2022-11-12T05:24:22.454Z,2.42
2022-11-12T05:27:20.780Z,2.03
2022-11-12T05:30:06.582Z,3.30
2022-11-12T05:32:52.103Z,3.30
2022-11-12T05:35:37.613Z,2.13
2022-11-12T05:38:23.151Z,2.05
2022-11-12T05:41:08.435Z,2.00
2022-11-12T05:43:53.892Z,1.63
2022-11-12T05:46:39.420Z,3.40
2022-11-12T05:49:25.129Z,3.85
2022-11-12T05:52:10.291Z,11.65
2022-11-12T05:54:55.750Z,2.20
2022-11-12T05:57:41.034Z,1.60
2022-11-12T06:00:26.342Z,1.73
2022-11-12T06:03:12.522Z,1.92
2022-11-12T06:05:57.869Z,2.40
2022-11-12T06:08:43.419Z,2.15
2022-11-12T06:11:28.761Z,2.22
2022-11-12T06:14:14.325Z,2.88
2022-11-12T06:16:59.675Z,2.90
2022-11-12T06:19:45.166Z,2.65
2022-11-12T06:22:30.726Z,2.85
2022-11-12T06:25:17.397Z,3.83
2022-11-12T06:28:02.585Z,2.60
2022-11-12T06:30:47.923Z,2.53
2022-11-12T06:33:33.419Z,2.78
2022-11-12T06:36:20.513Z,2.63
2022-11-12T06:39:05.870Z,2.35
2022-11-12T06:41:51.299Z,5.07
2022-11-12T06:44:36.664Z,3.08
2022-11-12T06:47:22.232Z,2.30
2022-11-12T06:50:07.989Z,2.22
2022-11-12T06:52:58.633Z,2.25
2022-11-12T06:55:44.074Z,4.28
2022-11-12T06:58:29.747Z,6.75
2022-11-12T07:01:16.582Z,4.90
2022-11-12T07:04:02.027Z,6.25
2022-11-12T07:06:47.567Z,2.80
2022-11-12T07:09:33.022Z,3.97
2022-11-12T07:12:18.503Z,4.63
2022-11-12T07:15:03.961Z,2.72
2022-11-12T07:17:49.218Z,2.72
2022-11-12T07:20:35.074Z,2.05
2022-11-12T07:23:20.460Z,2.83
2022-11-12T07:26:17.851Z,2.65
2022-11-12T07:29:03.032Z,2.15
2022-11-12T07:31:48.146Z,1.65
2022-11-12T07:34:33.432Z,2.25
2022-11-12T07:37:18.874Z,1.83
2022-11-12T07:40:05.230Z,2.17
2022-11-12T07:42:50.962Z,2.70
2022-11-12T07:45:36.200Z,3.05
2022-11-12T07:48:21.574Z,2.42
2022-11-12T07:51:13.141Z,2.50
2022-11-12T07:54:00.024Z,2.45
2022-11-12T07:56:45.467Z,2.72
2022-11-12T07:59:31.097Z,2.58
2022-11-12T08:02:16.462Z,2.95
2022-11-12T08:05:01.771Z,5.13
2022-11-12T08:07:47.459Z,5.20
2022-11-12T08:10:32.723Z,7.13
2022-11-12T08:13:18.180Z,5.72
2022-11-12T08:16:03.855Z,4.47
2022-11-12T08:18:49.788Z,8.23
2022-11-12T08:21:35.093Z,11.77
2022-11-12T08:24:20.594Z,11.63
2022-11-12T08:27:06.047Z,15.45
2022-11-12T08:29:51.471Z,13.45
2022-11-12T08:32:36.698Z,7.32
2022-11-12T08:35:22.134Z,8.05
2022-11-12T08:38:10.852Z,5.97
2022-11-12T08:40:59.505Z,5.15
2022-11-12T08:43:45.056Z,4.60
2022-11-12T08:46:30.568Z,3.50
2022-11-12T08:49:15.881Z,4.45
2022-11-12T08:52:01.367Z,2.90
2022-11-12T08:54:46.617Z,2.40
2022-11-12T08:57:31.950Z,3.58
2022-11-12T09:00:18.010Z,1.58
2022-11-12T09:03:04.793Z,2.85
2022-11-12T09:05:50.707Z,2.97
2022-11-12T09:08:36.927Z,3.88
2022-11-12T09:11:22.254Z,3.58
2022-11-12T09:14:07.703Z,2.35
2022-11-12T09:16:52.969Z,4.40
2022-11-12T09:19:43.005Z,2.72
2022-11-12T09:22:28.683Z,3.03
2022-11-12T09:25:14.151Z,3.33
2022-11-12T09:28:13.277Z,2.88
2022-11-12T09:30:59.598Z,2.72
2022-11-12T09:33:45.229Z,2.90
2022-11-12T09:36:31.958Z,2.65
2022-11-12T09:39:19.849Z,3.35
2022-11-12T09:42:14.004Z,4.47
2022-11-12T09:45:08.194Z,3.08
2022-11-12T09:48:02.053Z,4.97
2022-11-12T09:50:53.652Z,3.10
2022-11-12T09:54:13.891Z,3.95
2022-11-12T09:56:59.339Z,4.93
2022-11-12T09:59:44.987Z,2.97
2022-11-12T10:02:42.715Z,2.28
2022-11-12T10:05:40.834Z,4.00
2022-11-12T10:08:44.951Z,6.57
2022-11-12T10:12:13.092Z,4.97
2022-11-12T10:15:55.503Z,4.18
2022-11-12T10:18:56.823Z,2.67
2022-11-12T10:21:54.790Z,3.50
2022-11-12T10:24:41.815Z,3.90
2022-11-12T10:27:38.561Z,3.00
2022-11-12T10:30:25.501Z,4.43
2022-11-12T10:33:16.727Z,5.65
2022-11-12T10:36:14.043Z,3.13
2022-11-12T10:38:59.676Z,2.80
2022-11-12T10:41:45.083Z,3.28
2022-11-12T10:44:30.535Z,2.83
2022-11-12T10:47:54.301Z,3.40
2022-11-12T10:50:42.065Z,6.07
2022-11-12T10:53:37.653Z,10.95
2022-11-12T10:56:31.159Z,12.15
2022-11-12T10:59:19.645Z,12.00
2022-11-12T11:02:17.547Z,10.55
2022-11-12T11:05:29.616Z,8.25
2022-11-12T11:11:31.950Z,6.95
2022-11-12T11:14:23.414Z,5.53
2022-11-12T11:17:18.671Z,4.38
2022-11-12T11:20:19.357Z,5.13
2022-11-12T11:23:28.873Z,4.38
2022-11-12T11:26:29.420Z,5.07
2022-11-12T11:29:21.366Z,5.43
2022-11-12T11:35:07.322Z,3.92
2022-11-12T11:38:13.213Z,4.05
2022-11-12T11:41:37.291Z,4.75
2022-11-12T11:44:49.504Z,3.83
2022-11-12T11:48:00.395Z,2.10
2022-11-12T11:53:57.226Z,2.90
2022-11-12T11:56:44.364Z,2.83
2022-11-12T11:59:38.685Z,4.43
2022-11-12T12:02:34.661Z,3.03
2022-11-12T12:05:29.741Z,2.80
2022-11-12T12:08:25.652Z,3.70
2022-11-12T12:11:22.641Z,2.60
2022-11-12T12:14:18.153Z,3.08
2022-11-12T12:17:51.091Z,3.40
2022-11-12T12:20:51.456Z,4.50
2022-11-12T12:23:48.380Z,3.22
2022-11-12T12:26:44.126Z,4.22
2022-11-12T12:29:53.708Z,3.20
2022-11-12T12:32:44.806Z,3.15
2022-11-12T12:35:44.366Z,3.30
2022-11-12T12:38:44.078Z,3.50
2022-11-12T12:41:49.636Z,5.15
2022-11-12T12:45:01.152Z,5.78
2022-11-12T12:47:48.263Z,6.43
2022-11-12T12:50:36.634Z,4.05
2022-11-12T12:53:22.227Z,3.65
2022-11-12T12:56:30.497Z,5.53
2022-11-12T12:59:23.610Z,14.73
2022-11-12T13:02:25.419Z,11.60
2022-11-12T13:05:32.843Z,3.88
2022-11-12T13:08:25.986Z,3.40
2022-11-12T13:12:00.473Z,3.45
2022-11-12T13:14:52.160Z,5.35
2022-11-12T13:17:48.730Z,3.80
2022-11-12T13:20:36.813Z,2.70
2022-11-12T13:24:09.106Z,3.45
2022-11-12T13:26:59.246Z,2.95
2022-11-12T13:29:46.938Z,3.97
2022-11-12T13:32:53.975Z,4.90
2022-11-12T13:35:39.708Z,5.55
2022-11-12T13:38:26.327Z,6.20
2022-11-12T13:41:19.453Z,5.97
2022-11-12T13:44:08.751Z,5.60
2022-11-12T13:46:55.743Z,5.75
2022-11-12T13:49:43.634Z,3.20
2022-11-12T13:52:29.239Z,4.05
2022-11-12T13:55:22.331Z,5.45
2022-11-12T13:58:19.666Z,5.03
2022-11-12T14:01:07.228Z,6.70
2022-11-12T14:03:53.307Z,5.53
2022-11-12T14:06:42.990Z,11.82
2022-11-12T14:09:34.975Z,13.55
2022-11-12T14:15:25.097Z,15.45
2022-11-12T14:18:29.288Z,14.20
2022-11-12T14:21:17.379Z,14.43
2022-11-12T14:24:04.365Z,14.95
2022-11-12T14:26:50.013Z,7.38
2022-11-12T14:29:38.821Z,8.63
2022-11-12T14:32:26.457Z,6.53
2022-11-12T14:35:26.355Z,10.95
2022-11-12T14:38:19.919Z,6.60
2022-11-12T14:41:25.156Z,6.97
2022-11-12T14:44:17.953Z,6.55
2022-11-12T14:47:04.028Z,8.32
2022-11-12T14:49:50.270Z,12.13
2022-11-12T14:52:42.018Z,15.15
2022-11-12T14:55:32.255Z,12.45
2022-11-12T14:58:19.543Z,17.80
2022-11-12T15:04:50.810Z,16.95
2022-11-12T15:07:53.447Z,15.68
2022-11-12T15:10:41.303Z,11.13
2022-11-12T15:13:27.637Z,8.02
2022-11-12T15:16:21.228Z,8.65
2022-11-12T15:19:15.500Z,8.00
2022-11-12T15:22:02.417Z,6.88
2022-11-12T15:24:49.455Z,5.25
2022-11-12T15:27:38.486Z,5.65
2022-11-12T15:30:31.995Z,5.55
2022-11-12T15:33:23.547Z,5.95
2022-11-12T15:36:21.207Z,6.40
2022-11-12T15:39:13.335Z,6.65
2022-11-12T15:45:15.415Z,5.78
2022-11-12T15:48:00.855Z,4.88
2022-11-12T15:50:46.838Z,5.85
2022-11-12T15:53:32.269Z,6.78
2022-11-12T15:56:21.959Z,5.78
2022-11-12T15:59:09.631Z,5.38
2022-11-12T16:01:55.109Z,5.53
2022-11-12T16:04:40.490Z,5.47
2022-11-12T16:07:26.007Z,6.85
2022-11-12T16:10:16.506Z,9.63
2022-11-12T16:13:03.133Z,5.75
2022-11-12T16:15:51.507Z,9.32
2022-11-12T16:18:37.038Z,7.95
2022-11-12T16:21:22.551Z,8.02
2022-11-12T16:24:08.427Z,7.45
2022-11-12T16:26:53.897Z,5.45
2022-11-12T16:29:39.545Z,6.78
2022-11-12T16:32:25.332Z,7.55
2022-11-12T16:35:11.024Z,6.45
2022-11-12T16:37:56.118Z,7.60
2022-11-12T16:40:42.836Z,10.70
2022-11-12T16:43:28.293Z,11.55
2022-11-12T16:46:36.130Z,12.27
2022-11-12T16:49:21.568Z,10.95
2022-11-12T16:52:09.689Z,10.50
2022-11-12T16:54:57.923Z,9.43
2022-11-12T17:00:32.371Z,9.70
2022-11-12T17:03:17.975Z,12.07
2022-11-12T17:06:03.824Z,10.68
2022-11-12T17:08:52.903Z,10.75
2022-11-12T17:11:38.856Z,10.55
2022-11-12T17:14:28.099Z,12.32
2022-11-12T17:17:13.847Z,12.75
2022-11-12T17:19:59.379Z,15.90
2022-11-12T17:22:45.208Z,15.35
2022-11-12T17:25:30.453Z,12.85
2022-11-12T17:28:15.946Z,11.60
2022-11-12T17:31:15.907Z,11.35
2022-11-12T17:34:01.270Z,10.02
2022-11-12T17:36:46.829Z,11.73
2022-11-12T17:39:32.325Z,11.05
2022-11-12T17:42:17.851Z,11.70
2022-11-12T17:45:08.312Z,11.68
2022-11-12T17:47:54.027Z,14.00
2022-11-12T17:50:39.456Z,14.88
2022-11-12T17:53:25.761Z,11.05
2022-11-12T17:56:14.828Z,11.13
2022-11-12T17:59:02.059Z,13.68
2022-11-12T18:01:47.375Z,12.13
2022-11-12T18:04:33.020Z,10.85
2022-11-12T18:07:18.595Z,10.65
2022-11-12T18:10:04.238Z,11.30
2022-11-12T18:12:51.554Z,9.80
2022-11-12T18:15:38.537Z,11.07
2022-11-12T18:18:24.623Z,12.55
2022-11-12T18:21:10.509Z,12.23
2022-11-12T18:23:55.941Z,11.25
2022-11-12T18:26:41.680Z,13.05
2022-11-12T18:29:27.049Z,10.43
2022-11-12T18:32:13.598Z,10.13
2022-11-12T18:34:58.910Z,12.15
2022-11-12T18:37:44.652Z,11.00
2022-11-12T18:40:30.334Z,9.05
2022-11-12T18:43:15.754Z,10.25
2022-11-12T18:46:01.492Z,9.45
2022-11-12T18:48:47.507Z,8.68
2022-11-12T18:51:33.051Z,8.80
2022-11-12T18:54:18.626Z,9.10
2022-11-12T18:57:04.199Z,10.60
2022-11-12T18:59:52.084Z,9.60
2022-11-12T19:02:37.426Z,10.55
2022-11-12T19:05:22.767Z,11.60
2022-11-12T19:08:08.307Z,12.93
2022-11-12T19:11:05.308Z,12.85
2022-11-12T19:13:52.814Z,14.27
2022-11-12T19:16:42.415Z,14.20
2022-11-12T19:19:27.643Z,15.45
2022-11-12T19:22:13.209Z,13.93
2022-11-12T19:24:58.642Z,17.30
2022-11-12T19:27:44.051Z,12.95
2022-11-12T19:30:29.644Z,13.45
2022-11-12T19:33:15.232Z,12.52
2022-11-12T19:36:06.708Z,15.20
2022-11-12T19:39:00.814Z,16.35
2022-11-12T19:41:46.199Z,12.25
2022-11-12T19:44:31.846Z,16.35
2022-11-12T19:47:17.218Z,13.02
2022-11-12T19:50:02.766Z,11.52
2022-11-12T19:52:48.058Z,11.05
2022-11-12T19:55:39.602Z,9.57
2022-11-12T19:58:25.613Z,11.38
2022-11-12T20:01:13.421Z,11.27
2022-11-12T20:03:58.888Z,11.13
2022-11-12T20:06:44.515Z,9.23
2022-11-12T20:09:30.100Z,9.18
2022-11-12T20:12:15.738Z,9.20
2022-11-12T20:15:01.264Z,9.75
2022-11-12T20:17:46.781Z,8.13
2022-11-12T20:20:32.433Z,8.93
2022-11-12T20:23:17.992Z,9.05
2022-11-12T20:26:09.774Z,9.13
2022-11-12T20:28:55.294Z,9.63
2022-11-12T20:31:41.950Z,7.90
2022-11-12T20:34:27.193Z,9.45
2022-11-12T20:37:12.834Z,8.38
2022-11-12T20:39:58.930Z,8.25
2022-11-12T20:42:45.889Z,10.80
2022-11-12T20:45:31.222Z,11.18
2022-11-12T20:48:16.731Z,11.20
2022-11-12T20:51:22.617Z,9.27
2022-11-12T20:54:10.214Z,9.68
2022-11-12T20:56:56.093Z,6.43
2022-11-12T20:59:41.269Z,7.65
2022-11-12T21:02:26.653Z,7.45
2022-11-12T21:05:13.844Z,8.63
2022-11-12T21:07:59.039Z,9.65
2022-11-12T21:10:48.981Z,14.32
2022-11-12T21:13:35.600Z,12.23
2022-11-12T21:16:20.949Z,10.60
2022-11-12T21:19:06.807Z,10.23
2022-11-12T21:21:52.230Z,8.07
2022-11-12T21:24:37.674Z,9.68
2022-11-12T21:27:23.106Z,10.32
2022-11-12T21:30:09.205Z,6.63
2022-11-12T21:32:54.433Z,7.32
2022-11-12T21:35:40.170Z,9.35
2022-11-12T21:38:30.079Z,9.43
2022-11-12T21:41:18.912Z,8.02
2022-11-12T21:44:04.311Z,7.40
2022-11-12T21:46:49.802Z,7.65
2022-11-12T21:49:35.366Z,7.82
2022-11-12T21:52:20.785Z,6.82
2022-11-12T21:55:07.103Z,8.98
2022-11-12T21:57:52.686Z,6.50
2022-11-12T22:00:42.412Z,8.48
2022-11-12T22:03:30.719Z,7.78
2022-11-12T22:06:17.134Z,7.30
2022-11-12T22:09:03.029Z,6.50
2022-11-12T22:11:48.181Z,6.55
2022-11-12T22:14:33.670Z,8.35
2022-11-12T22:17:19.018Z,7.47
2022-11-12T22:20:05.064Z,6.18
2022-11-12T22:22:51.791Z,4.93
2022-11-12T22:25:36.983Z,6.13
2022-11-12T22:28:22.674Z,6.72
2022-11-12T22:31:14.203Z,8.65
2022-11-12T22:34:01.606Z,7.75
2022-11-12T22:36:47.050Z,5.28
2022-11-12T22:39:32.487Z,6.63
2022-11-12T22:42:17.869Z,8.27
2022-11-12T22:45:03.589Z,6.03
2022-11-12T22:47:48.911Z,7.15
2022-11-12T22:50:34.502Z,6.78
2022-11-12T22:53:19.830Z,7.07
2022-11-12T22:56:09.212Z,8.02
2022-11-12T22:58:55.323Z,5.82
2022-11-12T23:01:40.812Z,7.32
2022-11-12T23:04:26.244Z,5.68
2022-11-12T23:07:11.836Z,5.43
2022-11-12T23:09:57.100Z,5.07
2022-11-12T23:12:42.523Z,6.05
2022-11-12T23:15:31.604Z,4.47
2022-11-12T23:18:17.055Z,4.85
2022-11-12T23:21:14.325Z,3.80
2022-11-12T23:23:59.878Z,4.68
2022-11-12T23:26:45.015Z,5.22
2022-11-12T23:29:30.343Z,6.53
2022-11-12T23:32:15.692Z,7.10
2022-11-12T23:35:01.191Z,4.53
2022-11-12T23:37:46.466Z,4.25
2022-11-12T23:40:31.983Z,4.32
2022-11-12T23:43:17.351Z,4.72
2022-11-12T23:46:02.974Z,5.13
2022-11-12T23:48:48.569Z,4.47
2022-11-12T23:51:33.564Z,4.65
2022-11-12T23:54:19.082Z,4.80
2022-11-12T23:57:04.589Z,5.53
2022-11-12T23:59:50.087Z,3.15
